Stevinson, California
Current Conditions -  °F | °C
As of 11:35 PM on Saturday 22 Nov 2014 (Local Time) from KMER Reporting Station
Broken Clouds Broken Clouds  
Wind Chill: 52°   Ceiling: 300
Heat Index: 52°   Visibility: 1.5mi
Dew Point: 52°   Wind: 14mph
Humidity: 100%   Direction: 10°N
Pressure: 30.2"   Gusts: NA
Location:  37.33°N, 120.85°W
Report Text: KMER 230735Z AUTO 01012KT 1 1/2SM BKN003 11/11 A3020 RMK AO1
Loading
Personal Weather Stations






























Interactive Weather Map New forecast layout! Learn more

10-Day Weather Forecast

Advertisements
Track Severe Weather on mobile